sensor_id;sensor_type;location;lat;lon;timestamp;P1;durP1;ratioP1;P2;durP2;ratioP2
19599;SDS011;9947;57.722;12.012;2023-04-01T00:01:53;3.07;;;2.73;;
19599;SDS011;9947;57.722;12.012;2023-04-01T00:04:19;3.37;;;3.10;;
19599;SDS011;9947;57.722;12.012;2023-04-01T00:06:47;2.90;;;2.70;;
19599;SDS011;9947;57.722;12.012;2023-04-01T00:09:15;3.93;;;3.23;;
19599;SDS011;9947;57.722;12.012;2023-04-01T00:11:42;3.23;;;3.00;;
19599;SDS011;9947;57.722;12.012;2023-04-01T00:14:09;3.13;;;2.87;;
19599;SDS011;9947;57.722;12.012;2023-04-01T00:16:37;3.10;;;2.90;;
19599;SDS011;9947;57.722;12.012;2023-04-01T00:19:03;3.17;;;2.80;;
19599;SDS011;9947;57.722;12.012;2023-04-01T00:21:30;3.33;;;3.03;;
19599;SDS011;9947;57.722;12.012;2023-04-01T00:23:57;2.90;;;2.70;;
19599;SDS011;9947;57.722;12.012;2023-04-01T00:26:25;4.83;;;2.83;;
19599;SDS011;9947;57.722;12.012;2023-04-01T00:28:53;2.93;;;2.70;;
19599;SDS011;9947;57.722;12.012;2023-04-01T00:31:20;3.23;;;2.80;;
19599;SDS011;9947;57.722;12.012;2023-04-01T00:33:48;2.80;;;2.57;;
19599;SDS011;9947;57.722;12.012;2023-04-01T00:36:21;5.53;;;3.00;;
19599;SDS011;9947;57.722;12.012;2023-04-01T00:38:48;4.40;;;3.10;;
19599;SDS011;9947;57.722;12.012;2023-04-01T00:41:18;2.70;;;2.50;;
19599;SDS011;9947;57.722;12.012;2023-04-01T00:43:48;3.93;;;2.77;;
19599;SDS011;9947;57.722;12.012;2023-04-01T00:46:17;5.23;;;3.00;;
19599;SDS011;9947;57.722;12.012;2023-04-01T00:48:46;3.87;;;3.30;;
19599;SDS011;9947;57.722;12.012;2023-04-01T00:51:17;3.20;;;2.90;;
19599;SDS011;9947;57.722;12.012;2023-04-01T00:53:48;5.40;;;3.63;;
19599;SDS011;9947;57.722;12.012;2023-04-01T00:56:18;3.57;;;3.27;;
19599;SDS011;9947;57.722;12.012;2023-04-01T00:58:51;3.10;;;2.80;;
19599;SDS011;9947;57.722;12.012;2023-04-01T01:01:22;3.93;;;3.00;;
19599;SDS011;9947;57.722;12.012;2023-04-01T01:03:51;3.50;;;2.80;;
19599;SDS011;9947;57.722;12.012;2023-04-01T01:06:22;3.57;;;3.27;;
19599;SDS011;9947;57.722;12.012;2023-04-01T01:09:03;3.30;;;2.70;;
19599;SDS011;9947;57.722;12.012;2023-04-01T01:12:07;4.10;;;3.13;;
19599;SDS011;9947;57.722;12.012;2023-04-01T01:14:51;4.67;;;3.00;;
19599;SDS011;9947;57.722;12.012;2023-04-01T01:17:33;7.53;;;3.40;;
19599;SDS011;9947;57.722;12.012;2023-04-01T01:23:10;3.33;;;3.03;;
19599;SDS011;9947;57.722;12.012;2023-04-01T01:25:59;5.10;;;3.50;;
19599;SDS011;9947;57.722;12.012;2023-04-01T01:28:48;6.33;;;3.30;;
19599;SDS011;9947;57.722;12.012;2023-04-01T01:31:28;4.17;;;3.03;;
19599;SDS011;9947;57.722;12.012;2023-04-01T01:34:04;4.13;;;3.00;;
19599;SDS011;9947;57.722;12.012;2023-04-01T01:36:48;5.63;;;3.60;;
19599;SDS011;9947;57.722;12.012;2023-04-01T01:39:20;4.40;;;3.00;;
19599;SDS011;9947;57.722;12.012;2023-04-01T01:41:56;4.60;;;3.53;;
19599;SDS011;9947;57.722;12.012;2023-04-01T01:44:26;4.70;;;3.77;;
19599;SDS011;9947;57.722;12.012;2023-04-01T01:46:56;6.53;;;3.47;;
19599;SDS011;9947;57.722;12.012;2023-04-01T01:49:23;4.53;;;3.83;;
19599;SDS011;9947;57.722;12.012;2023-04-01T01:51:54;4.43;;;3.40;;
19599;SDS011;9947;57.722;12.012;2023-04-01T01:54:21;3.30;;;3.00;;
19599;SDS011;9947;57.722;12.012;2023-04-01T01:56:48;5.30;;;3.83;;
19599;SDS011;9947;57.722;12.012;2023-04-01T01:59:20;3.90;;;3.50;;
19599;SDS011;9947;57.722;12.012;2023-04-01T02:01:55;10.07;;;6.47;;
19599;SDS011;9947;57.722;12.012;2023-04-01T02:04:23;5.70;;;3.47;;
19599;SDS011;9947;57.722;12.012;2023-04-01T02:06:55;5.77;;;4.03;;
19599;SDS011;9947;57.722;12.012;2023-04-01T02:09:26;3.73;;;3.40;;
19599;SDS011;9947;57.722;12.012;2023-04-01T02:11:56;6.37;;;4.10;;
19599;SDS011;9947;57.722;12.012;2023-04-01T02:14:34;5.47;;;3.40;;
19599;SDS011;9947;57.722;12.012;2023-04-01T02:17:07;5.47;;;3.30;;
19599;SDS011;9947;57.722;12.012;2023-04-01T02:19:38;3.87;;;3.13;;
19599;SDS011;9947;57.722;12.012;2023-04-01T02:22:08;3.57;;;3.27;;
19599;SDS011;9947;57.722;12.012;2023-04-01T02:24:39;4.33;;;3.73;;
19599;SDS011;9947;57.722;12.012;2023-04-01T02:27:08;8.13;;;4.80;;
19599;SDS011;9947;57.722;12.012;2023-04-01T02:29:36;9.23;;;5.30;;
19599;SDS011;9947;57.722;12.012;2023-04-01T02:32:03;12.57;;;6.67;;
19599;SDS011;9947;57.722;12.012;2023-04-01T02:34:32;6.53;;;5.33;;
19599;SDS011;9947;57.722;12.012;2023-04-01T02:36:59;6.47;;;4.10;;
19599;SDS011;9947;57.722;12.012;2023-04-01T02:39:28;9.13;;;5.90;;
19599;SDS011;9947;57.722;12.012;2023-04-01T02:41:55;7.80;;;5.17;;
19599;SDS011;9947;57.722;12.012;2023-04-01T02:44:22;8.87;;;5.60;;
19599;SDS011;9947;57.722;12.012;2023-04-01T02:46:49;10.13;;;6.00;;
19599;SDS011;9947;57.722;12.012;2023-04-01T02:49:16;9.33;;;5.90;;
19599;SDS011;9947;57.722;12.012;2023-04-01T02:51:43;10.23;;;5.13;;
19599;SDS011;9947;57.722;12.012;2023-04-01T02:54:10;6.43;;;3.97;;
19599;SDS011;9947;57.722;12.012;2023-04-01T02:56:38;6.93;;;5.13;;
19599;SDS011;9947;57.722;12.012;2023-04-01T02:59:05;4.30;;;3.90;;
19599;SDS011;9947;57.722;12.012;2023-04-01T03:01:32;5.17;;;4.27;;
19599;SDS011;9947;57.722;12.012;2023-04-01T03:03:59;4.17;;;3.77;;
19599;SDS011;9947;57.722;12.012;2023-04-01T03:06:26;3.33;;;3.10;;
19599;SDS011;9947;57.722;12.012;2023-04-01T03:08:53;10.23;;;4.87;;
19599;SDS011;9947;57.722;12.012;2023-04-01T03:11:19;5.20;;;4.57;;
19599;SDS011;9947;57.722;12.012;2023-04-01T03:13:48;10.17;;;5.40;;
19599;SDS011;9947;57.722;12.012;2023-04-01T03:16:21;10.83;;;5.40;;
19599;SDS011;9947;57.722;12.012;2023-04-01T03:18:48;7.70;;;4.27;;
19599;SDS011;9947;57.722;12.012;2023-04-01T03:21:18;11.00;;;6.70;;
19599;SDS011;9947;57.722;12.012;2023-04-01T03:23:46;14.83;;;5.83;;
19599;SDS011;9947;57.722;12.012;2023-04-01T03:26:14;9.47;;;4.60;;
19599;SDS011;9947;57.722;12.012;2023-04-01T03:28:41;8.03;;;4.90;;
19599;SDS011;9947;57.722;12.012;2023-04-01T03:31:09;5.60;;;4.10;;
19599;SDS011;9947;57.722;12.012;2023-04-01T03:33:37;4.13;;;3.60;;
19599;SDS011;9947;57.722;12.012;2023-04-01T03:36:04;7.70;;;4.67;;
19599;SDS011;9947;57.722;12.012;2023-04-01T03:38:31;2.70;;;2.50;;
19599;SDS011;9947;57.722;12.012;2023-04-01T03:40:59;2.90;;;2.70;;
19599;SDS011;9947;57.722;12.012;2023-04-01T03:43:26;4.07;;;3.67;;
19599;SDS011;9947;57.722;12.012;2023-04-01T03:45:52;5.73;;;2.83;;
19599;SDS011;9947;57.722;12.012;2023-04-01T03:48:23;3.50;;;2.40;;
19599;SDS011;9947;57.722;12.012;2023-04-01T03:50:51;8.20;;;3.50;;
19599;SDS011;9947;57.722;12.012;2023-04-01T03:53:18;3.40;;;3.10;;
19599;SDS011;9947;57.722;12.012;2023-04-01T03:55:45;6.73;;;2.97;;
19599;SDS011;9947;57.722;12.012;2023-04-01T03:58:12;3.70;;;2.80;;
19599;SDS011;9947;57.722;12.012;2023-04-01T04:00:39;3.00;;;2.40;;
19599;SDS011;9947;57.722;12.012;2023-04-01T04:03:13;3.30;;;3.07;;
19599;SDS011;9947;57.722;12.012;2023-04-01T04:05:47;4.50;;;3.10;;
19599;SDS011;9947;57.722;12.012;2023-04-01T04:08:14;2.90;;;2.70;;
19599;SDS011;9947;57.722;12.012;2023-04-01T04:10:41;4.23;;;3.20;;
19599;SDS011;9947;57.722;12.012;2023-04-01T04:13:08;5.20;;;3.17;;
19599;SDS011;9947;57.722;12.012;2023-04-01T04:15:35;3.63;;;3.10;;
19599;SDS011;9947;57.722;12.012;2023-04-01T04:18:02;4.70;;;3.63;;
19599;SDS011;9947;57.722;12.012;2023-04-01T04:20:29;5.37;;;3.40;;
19599;SDS011;9947;57.722;12.012;2023-04-01T04:22:57;4.47;;;3.27;;
19599;SDS011;9947;57.722;12.012;2023-04-01T04:25:24;5.20;;;3.83;;
19599;SDS011;9947;57.722;12.012;2023-04-01T04:27:51;3.20;;;2.90;;
19599;SDS011;9947;57.722;12.012;2023-04-01T04:30:18;3.30;;;3.00;;
19599;SDS011;9947;57.722;12.012;2023-04-01T04:32:45;3.97;;;3.47;;
19599;SDS011;9947;57.722;12.012;2023-04-01T04:35:11;5.63;;;3.10;;
19599;SDS011;9947;57.722;12.012;2023-04-01T04:37:39;8.17;;;3.87;;
19599;SDS011;9947;57.722;12.012;2023-04-01T04:40:07;7.13;;;4.90;;
19599;SDS011;9947;57.722;12.012;2023-04-01T04:42:36;5.67;;;4.30;;
19599;SDS011;9947;57.722;12.012;2023-04-01T04:45:03;12.53;;;4.70;;
19599;SDS011;9947;57.722;12.012;2023-04-01T04:47:31;4.97;;;3.97;;
19599;SDS011;9947;57.722;12.012;2023-04-01T04:49:58;13.77;;;6.57;;
19599;SDS011;9947;57.722;12.012;2023-04-01T04:52:24;9.90;;;5.03;;
19599;SDS011;9947;57.722;12.012;2023-04-01T04:54:51;9.47;;;3.90;;
19599;SDS011;9947;57.722;12.012;2023-04-01T04:57:20;3.27;;;2.97;;
19599;SDS011;9947;57.722;12.012;2023-04-01T04:59:53;3.27;;;2.97;;
19599;SDS011;9947;57.722;12.012;2023-04-01T05:02:21;7.43;;;4.63;;
19599;SDS011;9947;57.722;12.012;2023-04-01T05:04:48;5.73;;;3.63;;
19599;SDS011;9947;57.722;12.012;2023-04-01T05:07:14;3.67;;;3.30;;
19599;SDS011;9947;57.722;12.012;2023-04-01T05:09:41;4.70;;;3.23;;
19599;SDS011;9947;57.722;12.012;2023-04-01T05:12:11;5.17;;;3.77;;
19599;SDS011;9947;57.722;12.012;2023-04-01T05:14:39;6.73;;;2.80;;
19599;SDS011;9947;57.722;12.012;2023-04-01T05:17:08;2.90;;;2.70;;
19599;SDS011;9947;57.722;12.012;2023-04-01T05:19:35;3.93;;;2.70;;
19599;SDS011;9947;57.722;12.012;2023-04-01T05:22:02;3.80;;;2.80;;
19599;SDS011;9947;57.722;12.012;2023-04-01T05:24:30;3.17;;;2.90;;
19599;SDS011;9947;57.722;12.012;2023-04-01T05:27:03;3.47;;;3.00;;
19599;SDS011;9947;57.722;12.012;2023-04-01T05:29:30;4.30;;;2.93;;
19599;SDS011;9947;57.722;12.012;2023-04-01T05:31:59;3.20;;;2.90;;
19599;SDS011;9947;57.722;12.012;2023-04-01T05:34:26;2.97;;;2.70;;
19599;SDS011;9947;57.722;12.012;2023-04-01T05:36:53;4.20;;;2.60;;
19599;SDS011;9947;57.722;12.012;2023-04-01T05:39:20;3.13;;;2.50;;
19599;SDS011;9947;57.722;12.012;2023-04-01T05:41:47;2.67;;;2.47;;
19599;SDS011;9947;57.722;12.012;2023-04-01T05:44:14;2.67;;;2.33;;
19599;SDS011;9947;57.722;12.012;2023-04-01T05:46:41;3.37;;;2.27;;
19599;SDS011;9947;57.722;12.012;2023-04-01T05:49:09;3.53;;;2.57;;
19599;SDS011;9947;57.722;12.012;2023-04-01T05:51:36;3.33;;;2.90;;
19599;SDS011;9947;57.722;12.012;2023-04-01T05:54:03;5.60;;;3.60;;
19599;SDS011;9947;57.722;12.012;2023-04-01T05:56:30;4.67;;;3.10;;
19599;SDS011;9947;57.722;12.012;2023-04-01T05:58:57;4.10;;;2.30;;
19599;SDS011;9947;57.722;12.012;2023-04-01T06:01:24;5.23;;;2.40;;
19599;SDS011;9947;57.722;12.012;2023-04-01T06:03:51;2.50;;;2.30;;
19599;SDS011;9947;57.722;12.012;2023-04-01T06:06:23;2.67;;;2.20;;
19599;SDS011;9947;57.722;12.012;2023-04-01T06:08:51;2.37;;;2.23;;
19599;SDS011;9947;57.722;12.012;2023-04-01T06:11:22;2.20;;;2.10;;
19599;SDS011;9947;57.722;12.012;2023-04-01T06:13:58;2.93;;;2.60;;
19599;SDS011;9947;57.722;12.012;2023-04-01T06:16:44;2.27;;;2.17;;
19599;SDS011;9947;57.722;12.012;2023-04-01T06:19:23;4.60;;;2.77;;
19599;SDS011;9947;57.722;12.012;2023-04-01T06:22:03;2.63;;;2.43;;
19599;SDS011;9947;57.722;12.012;2023-04-01T06:24:56;2.57;;;2.37;;
19599;SDS011;9947;57.722;12.012;2023-04-01T06:27:42;2.23;;;2.03;;
19599;SDS011;9947;57.722;12.012;2023-04-01T06:30:24;2.00;;;1.90;;
19599;SDS011;9947;57.722;12.012;2023-04-01T06:35:58;2.30;;;2.20;;
19599;SDS011;9947;57.722;12.012;2023-04-01T06:44:45;9.17;;;2.60;;
19599;SDS011;9947;57.722;12.012;2023-04-01T06:47:23;3.00;;;2.47;;
19599;SDS011;9947;57.722;12.012;2023-04-01T06:50:11;4.73;;;2.83;;
19599;SDS011;9947;57.722;12.012;2023-04-01T06:52:49;2.30;;;2.20;;
19599;SDS011;9947;57.722;12.012;2023-04-01T06:55:26;4.37;;;2.17;;
19599;SDS011;9947;57.722;12.012;2023-04-01T06:57:58;2.57;;;2.37;;
19599;SDS011;9947;57.722;12.012;2023-04-01T07:00:29;6.17;;;2.40;;
19599;SDS011;9947;57.722;12.012;2023-04-01T07:03:02;2.57;;;2.30;;
19599;SDS011;9947;57.722;12.012;2023-04-01T07:05:38;2.40;;;2.20;;
19599;SDS011;9947;57.722;12.012;2023-04-01T07:08:13;2.27;;;2.10;;
19599;SDS011;9947;57.722;12.012;2023-04-01T07:10:47;2.20;;;2.00;;
19599;SDS011;9947;57.722;12.012;2023-04-01T07:13:18;2.30;;;2.10;;
19599;SDS011;9947;57.722;12.012;2023-04-01T07:15:54;3.80;;;2.53;;
19599;SDS011;9947;57.722;12.012;2023-04-01T07:18:28;4.50;;;2.63;;
19599;SDS011;9947;57.722;12.012;2023-04-01T07:20:59;9.17;;;2.63;;
19599;SDS011;9947;57.722;12.012;2023-04-01T07:23:28;3.63;;;2.43;;
19599;SDS011;9947;57.722;12.012;2023-04-01T07:26:04;2.07;;;1.80;;
19599;SDS011;9947;57.722;12.012;2023-04-01T07:28:38;5.10;;;2.57;;
19599;SDS011;9947;57.722;12.012;2023-04-01T07:31:07;4.30;;;2.07;;
19599;SDS011;9947;57.722;12.012;2023-04-01T07:33:51;5.77;;;2.70;;
19599;SDS011;9947;57.722;12.012;2023-04-01T07:36:24;3.13;;;2.40;;
19599;SDS011;9947;57.722;12.012;2023-04-01T07:39:00;6.27;;;2.40;;
19599;SDS011;9947;57.722;12.012;2023-04-01T07:41:37;2.63;;;1.80;;
19599;SDS011;9947;57.722;12.012;2023-04-01T07:44:16;7.13;;;2.00;;
19599;SDS011;9947;57.722;12.012;2023-04-01T07:46:56;2.03;;;1.80;;
19599;SDS011;9947;57.722;12.012;2023-04-01T07:49:35;3.93;;;1.83;;
19599;SDS011;9947;57.722;12.012;2023-04-01T07:52:11;2.40;;;1.90;;
19599;SDS011;9947;57.722;12.012;2023-04-01T07:54:55;3.67;;;2.10;;
19599;SDS011;9947;57.722;12.012;2023-04-01T07:57:30;2.07;;;1.97;;
19599;SDS011;9947;57.722;12.012;2023-04-01T08:00:04;5.70;;;2.77;;
19599;SDS011;9947;57.722;12.012;2023-04-01T08:02:43;3.50;;;2.50;;
19599;SDS011;9947;57.722;12.012;2023-04-01T08:05:22;5.07;;;2.60;;
19599;SDS011;9947;57.722;12.012;2023-04-01T08:07:55;5.33;;;2.20;;
19599;SDS011;9947;57.722;12.012;2023-04-01T08:10:32;4.80;;;2.40;;
19599;SDS011;9947;57.722;12.012;2023-04-01T08:13:12;2.60;;;2.20;;
19599;SDS011;9947;57.722;12.012;2023-04-01T08:15:49;4.70;;;2.50;;
19599;SDS011;9947;57.722;12.012;2023-04-01T08:18:27;2.97;;;2.00;;
19599;SDS011;9947;57.722;12.012;2023-04-01T08:21:03;4.57;;;2.60;;
19599;SDS011;9947;57.722;12.012;2023-04-01T08:23:37;2.63;;;2.43;;
19599;SDS011;9947;57.722;12.012;2023-04-01T08:26:10;2.30;;;2.10;;
19599;SDS011;9947;57.722;12.012;2023-04-01T08:28:45;4.83;;;2.60;;
19599;SDS011;9947;57.722;12.012;2023-04-01T08:31:18;5.97;;;2.67;;
19599;SDS011;9947;57.722;12.012;2023-04-01T08:33:53;3.07;;;2.00;;
19599;SDS011;9947;57.722;12.012;2023-04-01T08:36:21;2.30;;;2.10;;
19599;SDS011;9947;57.722;12.012;2023-04-01T08:38:54;2.83;;;2.00;;
19599;SDS011;9947;57.722;12.012;2023-04-01T08:41:28;2.00;;;1.90;;
19599;SDS011;9947;57.722;12.012;2023-04-01T08:50:51;2.57;;;1.77;;
19599;SDS011;9947;57.722;12.012;2023-04-01T08:53:43;3.20;;;2.00;;
19599;SDS011;9947;57.722;12.012;2023-04-01T08:56:30;8.07;;;2.10;;
19599;SDS011;9947;57.722;12.012;2023-04-01T08:59:07;2.37;;;2.00;;
19599;SDS011;9947;57.722;12.012;2023-04-01T09:01:49;3.63;;;2.10;;
19599;SDS011;9947;57.722;12.012;2023-04-01T09:04:31;2.20;;;2.00;;
19599;SDS011;9947;57.722;12.012;2023-04-01T09:07:15;1.90;;;1.80;;
19599;SDS011;9947;57.722;12.012;2023-04-01T09:13:09;1.70;;;1.60;;
19599;SDS011;9947;57.722;12.012;2023-04-01T09:22:13;1.90;;;1.80;;
19599;SDS011;9947;57.722;12.012;2023-04-01T09:27:44;8.80;;;2.10;;
19599;SDS011;9947;57.722;12.012;2023-04-01T09:30:30;2.17;;;2.00;;
19599;SDS011;9947;57.722;12.012;2023-04-01T09:36:11;2.67;;;2.43;;
19599;SDS011;9947;57.722;12.012;2023-04-01T09:38:48;2.10;;;1.90;;
19599;SDS011;9947;57.722;12.012;2023-04-01T09:41:26;1.80;;;1.70;;
19599;SDS011;9947;57.722;12.012;2023-04-01T09:43:58;1.87;;;1.77;;
19599;SDS011;9947;57.722;12.012;2023-04-01T09:46:32;2.17;;;2.07;;
19599;SDS011;9947;57.722;12.012;2023-04-01T09:49:26;2.23;;;1.80;;
19599;SDS011;9947;57.722;12.012;2023-04-01T09:52:13;2.10;;;1.90;;
19599;SDS011;9947;57.722;12.012;2023-04-01T09:54:57;1.70;;;1.60;;
19599;SDS011;9947;57.722;12.012;2023-04-01T10:00:30;1.90;;;1.80;;
19599;SDS011;9947;57.722;12.012;2023-04-01T10:12:50;2.97;;;2.00;;
19599;SDS011;9947;57.722;12.012;2023-04-01T10:18:56;3.37;;;2.10;;
19599;SDS011;9947;57.722;12.012;2023-04-01T10:25:05;1.80;;;1.70;;
19599;SDS011;9947;57.722;12.012;2023-04-01T10:30:51;1.63;;;1.60;;
19599;SDS011;9947;57.722;12.012;2023-04-01T10:36:49;2.30;;;2.10;;
19599;SDS011;9947;57.722;12.012;2023-04-01T10:51:38;1.87;;;1.77;;
19599;SDS011;9947;57.722;12.012;2023-04-01T10:54:40;2.30;;;2.00;;
19599;SDS011;9947;57.722;12.012;2023-04-01T10:57:24;1.90;;;1.80;;
19599;SDS011;9947;57.722;12.012;2023-04-01T11:00:18;1.90;;;1.80;;
19599;SDS011;9947;57.722;12.012;2023-04-01T11:06:28;2.00;;;1.90;;
19599;SDS011;9947;57.722;12.012;2023-04-01T11:12:34;1.97;;;1.87;;
19599;SDS011;9947;57.722;12.012;2023-04-01T11:15:39;2.00;;;1.80;;
19599;SDS011;9947;57.722;12.012;2023-04-01T11:24:25;2.47;;;1.97;;
19599;SDS011;9947;57.722;12.012;2023-04-01T11:27:25;2.33;;;2.13;;
19599;SDS011;9947;57.722;12.012;2023-04-01T11:30:09;2.97;;;1.90;;
19599;SDS011;9947;57.722;12.012;2023-04-01T11:32:50;2.47;;;1.80;;
19599;SDS011;9947;57.722;12.012;2023-04-01T11:35:48;3.80;;;2.20;;
19599;SDS011;9947;57.722;12.012;2023-04-01T11:38:51;2.13;;;2.00;;
19599;SDS011;9947;57.722;12.012;2023-04-01T11:41:36;1.90;;;1.80;;
19599;SDS011;9947;57.722;12.012;2023-04-01T11:44:20;2.60;;;2.13;;
19599;SDS011;9947;57.722;12.012;2023-04-01T11:46:56;2.43;;;2.03;;
19599;SDS011;9947;57.722;12.012;2023-04-01T11:49:39;2.23;;;1.50;;
19599;SDS011;9947;57.722;12.012;2023-04-01T11:52:25;1.93;;;1.80;;
19599;SDS011;9947;57.722;12.012;2023-04-01T11:55:10;2.10;;;1.60;;
19599;SDS011;9947;57.722;12.012;2023-04-01T12:00:53;2.00;;;1.80;;
19599;SDS011;9947;57.722;12.012;2023-04-01T12:06:35;1.80;;;1.70;;
19599;SDS011;9947;57.722;12.012;2023-04-01T12:09:10;2.10;;;1.80;;
19599;SDS011;9947;57.722;12.012;2023-04-01T12:11:48;4.53;;;1.80;;
19599;SDS011;9947;57.722;12.012;2023-04-01T12:14:29;1.87;;;1.77;;
19599;SDS011;9947;57.722;12.012;2023-04-01T12:17:04;1.87;;;1.70;;
19599;SDS011;9947;57.722;12.012;2023-04-01T12:19:39;2.83;;;1.90;;
19599;SDS011;9947;57.722;12.012;2023-04-01T12:22:19;2.60;;;1.90;;
19599;SDS011;9947;57.722;12.012;2023-04-01T12:24:55;1.60;;;1.57;;
19599;SDS011;9947;57.722;12.012;2023-04-01T12:27:45;2.07;;;1.70;;
19599;SDS011;9947;57.722;12.012;2023-04-01T12:30:30;2.20;;;1.80;;
19599;SDS011;9947;57.722;12.012;2023-04-01T12:33:28;3.13;;;1.80;;
19599;SDS011;9947;57.722;12.012;2023-04-01T12:39:22;1.53;;;1.50;;
19599;SDS011;9947;57.722;12.012;2023-04-01T12:42:10;1.83;;;1.73;;
19599;SDS011;9947;57.722;12.012;2023-04-01T12:45:00;3.03;;;1.50;;
19599;SDS011;9947;57.722;12.012;2023-04-01T12:47:43;4.77;;;1.80;;
19599;SDS011;9947;57.722;12.012;2023-04-01T12:50:42;1.80;;;1.70;;
19599;SDS011;9947;57.722;12.012;2023-04-01T12:53:25;1.50;;;1.40;;
19599;SDS011;9947;57.722;12.012;2023-04-01T12:56:06;2.90;;;1.60;;
19599;SDS011;9947;57.722;12.012;2023-04-01T12:58:48;1.70;;;1.60;;
19599;SDS011;9947;57.722;12.012;2023-04-01T13:01:39;2.40;;;2.20;;
19599;SDS011;9947;57.722;12.012;2023-04-01T13:04:36;1.83;;;1.70;;
19599;SDS011;9947;57.722;12.012;2023-04-01T13:07:37;1.60;;;1.53;;
19599;SDS011;9947;57.722;12.012;2023-04-01T13:10:13;6.10;;;1.80;;
19599;SDS011;9947;57.722;12.012;2023-04-01T13:12:56;1.60;;;1.50;;
19599;SDS011;9947;57.722;12.012;2023-04-01T13:15:32;3.77;;;1.50;;
19599;SDS011;9947;57.722;12.012;2023-04-01T13:18:07;1.90;;;1.63;;
19599;SDS011;9947;57.722;12.012;2023-04-01T13:20:48;2.27;;;1.80;;
19599;SDS011;9947;57.722;12.012;2023-04-01T13:23:24;1.57;;;1.53;;
19599;SDS011;9947;57.722;12.012;2023-04-01T13:26:04;8.80;;;1.83;;
19599;SDS011;9947;57.722;12.012;2023-04-01T13:28:38;5.43;;;1.80;;
19599;SDS011;9947;57.722;12.012;2023-04-01T13:31:22;3.80;;;1.70;;
19599;SDS011;9947;57.722;12.012;2023-04-01T13:34:08;1.80;;;1.70;;
19599;SDS011;9947;57.722;12.012;2023-04-01T13:36:47;1.67;;;1.57;;
19599;SDS011;9947;57.722;12.012;2023-04-01T13:39:33;1.70;;;1.60;;
19599;SDS011;9947;57.722;12.012;2023-04-01T13:42:18;1.93;;;1.83;;
19599;SDS011;9947;57.722;12.012;2023-04-01T13:44:52;3.43;;;1.77;;
19599;SDS011;9947;57.722;12.012;2023-04-01T13:50:24;3.53;;;1.70;;
19599;SDS011;9947;57.722;12.012;2023-04-01T13:53:04;3.87;;;1.60;;
19599;SDS011;9947;57.722;12.012;2023-04-01T13:56:08;1.47;;;1.40;;
19599;SDS011;9947;57.722;12.012;2023-04-01T13:58:56;2.17;;;1.80;;
19599;SDS011;9947;57.722;12.012;2023-04-01T14:01:41;3.33;;;1.80;;
19599;SDS011;9947;57.722;12.012;2023-04-01T14:04:27;1.77;;;1.67;;
19599;SDS011;9947;57.722;12.012;2023-04-01T14:10:07;2.73;;;1.53;;
19599;SDS011;9947;57.722;12.012;2023-04-01T14:12:46;3.77;;;1.80;;
19599;SDS011;9947;57.722;12.012;2023-04-01T14:15:23;1.70;;;1.60;;
19599;SDS011;9947;57.722;12.012;2023-04-01T14:18:07;2.30;;;1.70;;
19599;SDS011;9947;57.722;12.012;2023-04-01T14:20:50;1.40;;;1.40;;
19599;SDS011;9947;57.722;12.012;2023-04-01T14:26:22;3.00;;;1.70;;
19599;SDS011;9947;57.722;12.012;2023-04-01T14:29:03;1.90;;;1.70;;
19599;SDS011;9947;57.722;12.012;2023-04-01T14:31:47;1.73;;;1.60;;
19599;SDS011;9947;57.722;12.012;2023-04-01T14:34:24;1.90;;;1.80;;
19599;SDS011;9947;57.722;12.012;2023-04-01T14:37:14;2.57;;;1.60;;
19599;SDS011;9947;57.722;12.012;2023-04-01T14:40:18;2.60;;;1.40;;
19599;SDS011;9947;57.722;12.012;2023-04-01T14:49:17;4.20;;;1.53;;
19599;SDS011;9947;57.722;12.012;2023-04-01T14:51:49;2.50;;;1.90;;
19599;SDS011;9947;57.722;12.012;2023-04-01T14:54:19;2.77;;;1.80;;
19599;SDS011;9947;57.722;12.012;2023-04-01T14:57:03;1.50;;;1.50;;
19599;SDS011;9947;57.722;12.012;2023-04-01T14:59:39;1.60;;;1.60;;
19599;SDS011;9947;57.722;12.012;2023-04-01T15:02:16;1.40;;;1.40;;
19599;SDS011;9947;57.722;12.012;2023-04-01T15:05:02;3.03;;;1.87;;
19599;SDS011;9947;57.722;12.012;2023-04-01T15:10:59;1.50;;;1.50;;
19599;SDS011;9947;57.722;12.012;2023-04-01T15:13:48;1.90;;;1.80;;
19599;SDS011;9947;57.722;12.012;2023-04-01T15:16:30;2.60;;;1.70;;
19599;SDS011;9947;57.722;12.012;2023-04-01T15:19:10;3.67;;;2.13;;
19599;SDS011;9947;57.722;12.012;2023-04-01T15:21:53;2.00;;;1.80;;
19599;SDS011;9947;57.722;12.012;2023-04-01T15:24:35;2.37;;;1.87;;
19599;SDS011;9947;57.722;12.012;2023-04-01T15:27:25;1.83;;;1.50;;
19599;SDS011;9947;57.722;12.012;2023-04-01T15:35:46;1.77;;;1.67;;
19599;SDS011;9947;57.722;12.012;2023-04-01T15:38:27;5.10;;;2.60;;
19599;SDS011;9947;57.722;12.012;2023-04-01T15:41:05;1.70;;;1.60;;
19599;SDS011;9947;57.722;12.012;2023-04-01T15:43:44;4.30;;;2.00;;
19599;SDS011;9947;57.722;12.012;2023-04-01T15:49:22;4.40;;;2.87;;
19599;SDS011;9947;57.722;12.012;2023-04-01T15:52:05;2.03;;;1.93;;
19599;SDS011;9947;57.722;12.012;2023-04-01T15:57:37;2.70;;;2.43;;
19599;SDS011;9947;57.722;12.012;2023-04-01T16:00:19;2.03;;;1.80;;
19599;SDS011;9947;57.722;12.012;2023-04-01T16:02:53;2.90;;;2.23;;
19599;SDS011;9947;57.722;12.012;2023-04-01T16:06:01;2.43;;;1.80;;
19599;SDS011;9947;57.722;12.012;2023-04-01T16:08:50;3.00;;;1.93;;
19599;SDS011;9947;57.722;12.012;2023-04-01T16:11:28;2.23;;;1.80;;
19599;SDS011;9947;57.722;12.012;2023-04-01T16:14:11;2.00;;;1.90;;
19599;SDS011;9947;57.722;12.012;2023-04-01T16:16:54;1.60;;;1.50;;
19599;SDS011;9947;57.722;12.012;2023-04-01T16:19:38;3.57;;;2.00;;
19599;SDS011;9947;57.722;12.012;2023-04-01T16:22:13;1.70;;;1.60;;
19599;SDS011;9947;57.722;12.012;2023-04-01T16:24:53;2.10;;;1.80;;
19599;SDS011;9947;57.722;12.012;2023-04-01T16:27:27;2.13;;;2.00;;
19599;SDS011;9947;57.722;12.012;2023-04-01T16:30:09;1.87;;;1.77;;
19599;SDS011;9947;57.722;12.012;2023-04-01T16:32:54;1.90;;;1.70;;
19599;SDS011;9947;57.722;12.012;2023-04-01T16:35:31;1.73;;;1.63;;
19599;SDS011;9947;57.722;12.012;2023-04-01T16:38:11;2.00;;;1.90;;
19599;SDS011;9947;57.722;12.012;2023-04-01T16:40:44;2.17;;;1.80;;
19599;SDS011;9947;57.722;12.012;2023-04-01T16:43:20;2.10;;;1.90;;
19599;SDS011;9947;57.722;12.012;2023-04-01T16:49:15;3.10;;;1.70;;
19599;SDS011;9947;57.722;12.012;2023-04-01T16:51:53;6.53;;;1.87;;
19599;SDS011;9947;57.722;12.012;2023-04-01T16:54:35;3.97;;;1.80;;
19599;SDS011;9947;57.722;12.012;2023-04-01T16:57:16;2.10;;;1.90;;
19599;SDS011;9947;57.722;12.012;2023-04-01T16:59:52;1.70;;;1.60;;
19599;SDS011;9947;57.722;12.012;2023-04-01T17:02:25;2.60;;;1.60;;
19599;SDS011;9947;57.722;12.012;2023-04-01T17:04:58;2.00;;;1.80;;
19599;SDS011;9947;57.722;12.012;2023-04-01T17:07:38;2.67;;;1.80;;
19599;SDS011;9947;57.722;12.012;2023-04-01T17:19:14;1.70;;;1.60;;
19599;SDS011;9947;57.722;12.012;2023-04-01T17:21:54;2.07;;;1.60;;
19599;SDS011;9947;57.722;12.012;2023-04-01T17:24:38;2.00;;;1.60;;
19599;SDS011;9947;57.722;12.012;2023-04-01T17:27:18;1.87;;;1.77;;
19599;SDS011;9947;57.722;12.012;2023-04-01T17:30:01;1.83;;;1.73;;
19599;SDS011;9947;57.722;12.012;2023-04-01T17:32:52;1.77;;;1.67;;
19599;SDS011;9947;57.722;12.012;2023-04-01T17:35:29;1.97;;;1.70;;
19599;SDS011;9947;57.722;12.012;2023-04-01T17:38:03;1.90;;;1.80;;
19599;SDS011;9947;57.722;12.012;2023-04-01T17:40:44;2.93;;;1.80;;
19599;SDS011;9947;57.722;12.012;2023-04-01T17:43:25;2.70;;;1.90;;
19599;SDS011;9947;57.722;12.012;2023-04-01T17:46:05;1.83;;;1.73;;
19599;SDS011;9947;57.722;12.012;2023-04-01T17:48:53;5.60;;;1.80;;
19599;SDS011;9947;57.722;12.012;2023-04-01T17:51:29;8.80;;;2.20;;
19599;SDS011;9947;57.722;12.012;2023-04-01T17:54:05;1.97;;;1.87;;
19599;SDS011;9947;57.722;12.012;2023-04-01T17:56:47;2.90;;;1.80;;
19599;SDS011;9947;57.722;12.012;2023-04-01T17:59:23;2.40;;;2.20;;